Redlands, CA (92373)

05:28 PDT le 01 novembre 2014 (GMT -0700)
Redlands High School-Terriers | Change Station
CLOSE
Current Station
Stations météorologiques personnelles
Location: Redlands, CA
Altitude: 1505 ft
Stations météo à proximité

Alt. 1505 ft 34.05 °N, 117.17 °W | Updated 0 second ago

Nuageux
Nuageux
54.5 ° F
Paraît 54.5 ° F
N
0.0
Vent Variable Vent de Nord
Gusts 1.0 mph

Aujourd'hui
Haut(e) -- | Bas -- ° F
--% Risque de précip.
Hier
Haut(e) -- | Bas -- ° F
Precip. -- pouce
7:08 AM 5:55 PM
Lune gibbeuse croissante, 66% visible
Pression 29.86 pouce
Visibilité 10.0 Miles terrestres
Nuages Peu 1000 ft
Nuages épars 3000 ft
Nuageux 8000 ft
Point de rosée 52 ° F
Humidité 91%
Précipitations 0.18 pouce
Profondeur de la couche neigeuse Non disponible.
UV 0.0 sur 12
Pollen .60 sur 12
Qualité de l'air Non disponible.
Flu Activity Non disponible.
METAR KRIV 011158Z 30015KT 10SM FEW010 SCT030 BKN080 13/13 A2987 RMK AO2A RAE42 SLP109 P0005 60017 70017 T01320127 10162 20132 53008

More Conditions Fewer Conditions

Pression 29.86 pouce
Visibilité 10.0 Miles terrestres
Nuages Peu 1000 ft
Nuages épars 3000 ft
Nuageux 8000 ft
Point de rosée 52 ° F
Humidité 91%
Précipitations 0.18 pouce
Profondeur de la couche neigeuse Non disponible.
UV 0.0 sur 12
Pollen .60 sur 12
Qualité de l'air Non disponible.
Flu Activity Non disponible.
METAR KRIV 011158Z 30015KT 10SM FEW010 SCT030 BKN080 13/13 A2987 RMK AO2A RAE42 SLP109 P0005 60017 70017 T01320127 10162 20132 53008

More Conditions Fewer Conditions

10-Day Weather Forecast

Almanac

Astronomie

Nov. 01, 2014 Lever Coucher
Temps réel
Crépuscule civil
Crépuscule nautique
Crépuscule astronomique
Lune
Durée de lumière visible
Longueur du jour
Tomorrow will be .
, % of the Moon is Illuminated

Extrêmes aujourd'hui

State Highs State Lows

Community

WunderPhotos

Upload Photos

1,766,912 Photos téléchargées !

WunderBlogs® & News

Nearby

Qualité de l'air

  Qualité de l'air Indice de la qualité de l'air Polluant
Not available.

Épaisseur de neige

Station Depth Altitude

Activité sismique

Ville Distance Mag. Time & Date
Minimum magnitude displayed is 2.5.

Températures des eaux côtières

Lieu Température

Stations météo à proximité